Latest Weather Observations for Cerberus

IDV60901

Issued at 3:41 am EST Wednesday 23 September 2020 (issued every 10 minutes, with the page automatically refreshed every 10 minutes)

About weather observations | Map of Melbourne area stations | Latest observations for Melbourne area | Other Formats
Station Details ID: 086361 Name: CERBERUS Lat: -38.36 Lon: 145.18 Height: 12.69 m
Data from the previous 72 hours. | See also: Recent months at Cerberus
Date/Time
EST
Temp
°C
App
Temp
°C
Dew
Point
°C
Rel
Hum
%
Delta-T
°C
Wind Press
QNH
hPa
Press
MSL
hPa
Rain since
9am
mm
Dir  Spd
km/h
Gust
km/h
Spd
kts
Gust
kts
23/03:39am 11.6 5.4 6.1 69 2.6 WNW 28 46 15 25 1008.6 1008.6 2.2
23/03:30am 11.7 5.5 6.0 68 2.7 WNW 28 43 15 23 1008.5 1008.5 2.2
23/03:07am 11.7 5.5 6.0 68 2.7 NW 28 46 15 25 1008.6 1008.6 2.2
23/03:00am 11.7 6.3 6.2 69 2.6 WNW 24 39 13 21 1008.6 1008.6 2.2
23/02:30am 11.9 6.5 6.4 69 2.6 WNW 24 46 13 25 1008.7 1008.7 2.2
23/02:00am 12.1 7.5 6.6 69 2.6 WNW 20 41 11 22 1008.9 1008.9 2.2
23/01:30am 12.0 7.0 6.5 69 2.6 WNW 22 35 12 19 1009.0 1009.0 2.2
23/01:03am 12.0 5.8 6.1 67 2.8 WNW 28 48 15 26 1009.0 1009.0 2.2
23/01:00am 12.1 5.9 6.2 67 2.8 WNW 28 41 15 22 1009.0 1009.0 2.2
23/12:30am 12.2 6.5 6.7 69 2.6 WNW 26 43 14 23 1009.1 1009.1 2.2
23/12:00am 12.4 6.2 6.2 66 2.9 WNW 28 44 15 24 1008.8 1008.8 2.2
 
Date/Time
EST
Temp
°C
App
Temp
°C
Dew
Point
°C
Rel
Hum
%
Delta-T
°C
Wind Press
QNH
hPa
Press
MSL
hPa
Rain since
9am
mm
Dir  Spd
km/h
Gust
km/h
Spd
kts
Gust
kts
22/11:30pm 12.3 7.7 6.4 67 2.8 NW 20 35 11 19 1008.9 1008.9 2.2
22/11:00pm 12.4 7.3 6.0 65 3.0 NW 22 39 12 21 1009.0 1009.0 2.2
22/10:30pm 12.3 8.2 6.4 67 2.8 WNW 17 30 9 16 1008.9 1008.9 2.2
22/10:00pm 12.2 9.0 6.7 69 2.6 NW 13 17 7 9 1008.9 1008.9 2.2
22/09:30pm 11.9 9.8 6.8 71 2.4 NW 7 19 4 10 1009.0 1009.0 2.2
22/09:00pm 11.4 9.7 6.1 70 2.5 NNW 4 9 2 5 1009.0 1009.0 2.2
22/08:30pm 11.9 8.6 6.4 69 2.6 WNW 13 20 7 11 1008.9 1008.9 2.2
22/08:00pm 12.3 7.9 6.6 68 2.7 WNW 19 32 10 17 1008.4 1008.4 2.2
22/07:30pm 12.2 7.7 6.3 67 2.8 WNW 19 30 10 16 1008.0 1008.0 2.2
22/07:00pm 12.2 8.1 6.0 66 2.9 WNW 17 28 9 15 1007.6 1007.6 2.2
22/06:30pm 12.6 7.2 6.2 65 3.0 W 24 39 13 21 1006.9 1006.9 2.2
22/06:00pm 13.1 7.3 6.2 63 3.3 W 26 43 14 23 1006.5 1006.5 2.2
22/05:33pm 13.6 7.6 7.2 65 3.1 W 28 61 15 33 1005.6 1005.6 2.2
22/05:30pm 13.7 7.8 7.5 66 3.0 W 28 41 15 22 1005.5 1005.5 2.2
22/05:00pm 13.5 7.2 7.3 66 3.0 WNW 30 50 16 27 1005.0 1005.0 2.2
22/04:34pm 14.1 7.4 7.4 64 3.3 WNW 32 59 17 32 1004.2 1004.2 2.2
22/04:30pm 14.2 7.6 7.7 65 3.2 WNW 32 48 17 26 1004.1 1004.1 2.2
22/04:00pm 13.4 7.7 8.3 71 2.6 WNW 28 54 15 29 1003.5 1003.5 2.2
22/03:30pm 15.3 8.4 7.3 59 4.0 NW 33 54 18 29 1002.7 1002.7 0.8
22/03:00pm 16.9 9.8 8.1 56 4.5 NW 35 54 19 29 1002.4 1002.4 0.8
22/02:39pm 15.6 10.1 9.1 65 3.3 NW 28 46 15 25 1002.7 1002.7 0.8
22/02:30pm 14.6 10.2 9.0 69 2.9 NW 22 37 12 20 1002.9 1002.9 0.8
22/02:04pm 13.6 7.4 7.8 68 2.9 NW 30 50 16 27 1003.0 1003.0 0.6
22/02:00pm 14.3 9.2 7.6 64 3.3 NW 24 46 13 25 1002.9 1002.9 0.0
22/01:30pm 16.1 10.2 6.0 51 4.9 NNW 26 46 14 25 1002.7 1002.7 0.0
22/01:00pm 16.7 9.4 5.6 48 5.4 NW 33 61 18 33 1002.8 1002.8 0.0
22/12:32pm 17.0 10.4 5.9 48 5.4 NW 30 48 16 26 1003.2 1003.2 0.0
22/12:30pm 17.4 11.7 6.9 50 5.2 NW 26 41 14 22 1003.3 1003.3 0.0
22/12:00pm 15.8 8.9 6.5 54 4.6 NW 32 52 17 28 1003.7 1003.7 0.0
22/11:30am 16.0 9.6 7.0 55 4.4 NNW 30 50 16 27 1003.7 1003.7 0.0
22/11:00am 16.3 9.8 6.4 52 4.9 NW 30 50 16 27 1003.8 1003.8 0.0
22/10:54am 16.1 9.6 6.5 53 4.7 NW 30 48 16 26 1003.9 1003.9 0.0
22/10:30am 15.6 9.5 6.6 55 4.4 NNW 28 43 15 23 1004.0 1004.0 0.0
22/10:00am 15.7 9.5 6.2 53 4.6 NNW 28 50 15 27 1004.2 1004.2 0.0
22/09:31am 15.1 8.8 5.9 54 4.4 NNW 28 57 15 31 1004.1 1004.1 0.0
22/09:30am 15.4 9.7 6.7 56 4.2 NNW 26 57 14 31 1004.2 1004.2 0.0
22/09:00am 14.9 8.8 6.5 57 4.1 NNW 28 46 15 25 1004.2 1004.2 0.0
22/08:32am 14.2 7.9 5.8 57 4.0 NNW 28 50 15 27 1004.1 1004.1 0.0
22/08:30am 14.3 8.5 6.2 58 3.9 NNW 26 43 14 23 1004.1 1004.1 0.0
22/08:24am 14.2 8.0 6.1 58 3.9 NNW 28 46 15 25 1004.2 1004.2 0.0
22/08:00am 13.9 8.4 5.8 58 3.9 NNW 24 44 13 24 1004.1 1004.1 0.0
22/07:34am 13.6 7.4 6.0 60 3.6 NW 28 48 15 26 1004.1 1004.1 0.0
22/07:30am 13.5 7.7 6.1 61 3.5 NW 26 41 14 22 1004.0 1004.0 0.0
22/07:00am 13.0 9.4 6.8 66 3.0 NNW 15 28 8 15 1004.0 1004.0 0.0
22/06:30am 12.6 8.8 6.0 64 3.1 NNW 15 28 8 15 1003.7 1003.7 0.0
22/06:00am 13.0 8.8 5.7 61 3.4 NNW 17 26 9 14 1003.5 1003.5 0.0
22/05:30am 13.0 8.8 5.9 62 3.3 NNW 17 30 9 16 1003.3 1003.3 0.0
22/05:00am 12.8 8.9 5.5 61 3.4 NNW 15 39 8 21 1003.4 1003.4 0.0
22/04:30am 13.0 9.9 5.4 60 3.5 NW 11 20 6 11 1003.1 1003.1 0.0
22/04:00am 13.6 8.9 5.3 57 3.9 NNW 19 32 10 17 1002.9 1002.9 0.0
22/03:30am 13.8 10.2 5.2 56 4.0 NNW 13 24 7 13 1002.9 1002.9 0.0
22/03:00am 13.7 10.8 4.8 55 4.1 NNW 9 17 5 9 1002.8 1002.8 0.0
22/02:30am 13.8 10.9 4.7 54 4.2 NNW 9 15 5 8 1003.0 1003.0 0.0
22/02:00am 13.8 10.8 4.1 52 4.5 N 9 17 5 9 1003.1 1003.1 0.0
22/01:30am 14.2 11.2 3.9 50 4.7 N 9 19 5 10 1003.4 1003.4 0.0
22/01:00am 14.8 11.3 3.6 47 5.1 NNW 11 20 6 11 1003.6 1003.6 0.0
22/12:30am 14.8 11.0 3.9 48 5.0 NNW 13 20 7 11 1003.5 1003.5 0.0
22/12:00am 14.2 10.8 3.9 50 4.7 NNW 11 17 6 9 1003.7 1003.7 0.0
 
Date/Time
EST
Temp
°C
App
Temp
°C
Dew
Point
°C
Rel
Hum
%
Delta-T
°C
Wind Press
QNH
hPa
Press
MSL
hPa
Rain since
9am
mm
Dir  Spd
km/h
Gust
km/h
Spd
kts
Gust
kts
21/11:30pm 14.0 10.6 3.8 50 4.6 N 11 20 6 11 1003.7 1003.7 0.0
21/11:00pm 14.2 10.8 3.9 50 4.7 N 11 20 6 11 1003.6 1003.6 0.0
21/10:30pm 14.5 11.5 3.9 49 4.8 N 9 17 5 9 1003.6 1003.6 0.0
21/10:00pm 15.0 10.9 4.1 48 5.0 N 15 24 8 13 1003.6 1003.6 0.0
21/09:30pm 15.0 11.7 4.4 49 4.9 N 11 19 6 10 1003.2 1003.2 0.0
21/09:00pm 15.1 11.8 4.8 50 4.8 N 11 19 6 10 1002.9 1002.9 0.0
21/08:30pm 15.2 11.6 4.9 50 4.8 N 13 22 7 12 1002.9 1002.9 0.0
21/08:00pm 15.0 12.0 5.8 54 4.4 N 11 17 6 9 1002.9 1002.9 0.0
21/07:30pm 15.4 12.6 6.9 57 4.2 NNW 11 19 6 10 1002.8 1002.8 0.0
21/07:00pm 14.6 12.6 6.9 60 3.8 NW 7 15 4 8 1002.6 1002.6 0.0
21/06:30pm 15.4 13.1 5.9 53 4.6 NW 7 13 4 7 1002.6 1002.6 0.0
21/06:00pm 17.5 14.0 5.4 45 5.9 NNW 13 24 7 13 1002.4 1002.4 0.0
21/05:30pm 17.6 13.6 4.9 43 6.1 NNW 15 32 8 17 1002.1 1002.1 0.0
21/05:00pm 18.5 14.1 5.0 41 6.5 NNW 17 33 9 18 1001.9 1001.9 0.0
21/04:30pm 18.8 14.5 5.3 41 6.6 NNW 17 28 9 15 1001.8 1001.8 0.0
21/04:00pm 18.7 13.9 4.5 39 6.8 NNW 19 32 10 17 1001.8 1001.8 0.0
21/03:30pm 18.6 13.6 4.4 39 6.8 NNW 20 33 11 18 1002.1 1002.1 0.0
21/03:00pm 18.4 12.1 3.8 38 6.9 NNW 26 44 14 24 1002.7 1002.7 0.0
21/02:30pm 18.5 13.6 5.0 41 6.5 NNW 20 35 11 19 1002.7 1002.7 0.0
21/02:00pm 18.5 13.6 6.7 46 5.9 NNW 22 46 12 25 1003.0 1003.0 0.0
21/01:30pm 18.9 14.6 5.4 41 6.6 NW 17 28 9 15 1003.2 1003.2 0.0
21/01:00pm 18.4 14.4 6.6 46 5.9 NW 17 30 9 16 1003.5 1003.5 0.0
21/12:30pm 18.5 15.0 7.3 48 5.7 NW 15 26 8 14 1003.9 1003.9 0.0
21/12:00pm 18.0 15.5 8.0 52 5.1 NW 11 17 6 9 1004.0 1004.0 0.0
21/11:30am 17.3 14.5 7.1 51 5.1 WNW 11 17 6 9 1003.5 1003.5 0.0
21/11:00am 17.1 14.8 9.0 59 4.2 WNW 11 17 6 9 1003.8 1003.8 0.0
21/10:30am 16.5 15.2 10.1 66 3.4 WNW 7 13 4 7 1003.9 1003.9 0.0
21/10:00am 16.0 15.0 10.3 69 3.0 SE 6 7 3 4 1004.5 1004.5 0.0
21/09:30am 15.6 15.7 10.2 70 2.8 CALM 0 4 0 2 1004.6 1004.6 0.0
21/09:00am 14.8 13.7 10.0 73 2.5 S 6 7 3 4 1004.8 1004.8 2.4
21/08:30am 14.5 14.0 9.3 71 2.7 WNW 2 6 1 3 1004.4 1004.4 2.4
21/08:00am 14.1 12.6 9.1 72 2.6 WNW 7 13 4 7 1004.7 1004.7 2.4
21/07:30am 13.8 12.2 8.8 72 2.5 NW 7 11 4 6 1004.5 1004.5 2.4
21/07:00am 13.7 11.3 8.5 71 2.6 WNW 11 19 6 10 1004.8 1004.8 2.4
21/06:30am 14.0 11.8 9.2 73 2.4 WNW 11 19 6 10 1004.5 1004.5 2.4
21/06:00am 14.4 11.2 11.2 81 1.7 WNW 19 32 10 17 1004.6 1004.6 2.4
21/05:30am 14.8 13.0 12.1 84 1.5 WNW 13 24 7 13 1004.4 1004.4 2.4
21/05:00am 16.1 13.3 12.5 79 2.0 WNW 19 28 10 15 1004.2 1004.2 1.6
21/04:30am 16.2 14.1 12.4 78 2.1 NW 15 22 8 12 1003.1 1003.1 1.4
21/04:00am 17.4 14.4 11.9 70 3.0 WNW 19 28 10 15 1002.9 1002.9 1.4
21/03:30am 19.3 16.2 11.6 61 4.2 N 19 37 10 20 1001.8 1001.8 0.0
21/03:00am 20.2 17.0 11.1 56 5.0 N 19 35 10 19 1001.8 1001.8 0.0
21/02:30am 20.5 17.3 11.4 56 5.0 N 19 39 10 21 1001.8 1001.8 0.0
21/02:00am 20.4 16.7 11.6 57 4.9 NNW 22 39 12 21 1002.6 1002.6 0.0
21/01:30am 20.1 17.1 11.8 59 4.6 N 19 32 10 17 1002.8 1002.8 0.0
21/01:00am 19.5 16.3 12.0 62 4.2 NNW 20 35 11 19 1002.9 1002.9 0.0
21/12:30am 18.8 16.6 12.1 65 3.7 N 15 24 8 13 1003.3 1003.3 0.0
21/12:00am 18.4 17.0 12.2 67 3.5 N 11 20 6 11 1003.4 1003.4 0.0
 
Date/Time
EST
Temp
°C
App
Temp
°C
Dew
Point
°C
Rel
Hum
%
Delta-T
°C
Wind Press
QNH
hPa
Press
MSL
hPa
Rain since
9am
mm
Dir  Spd
km/h
Gust
km/h
Spd
kts
Gust
kts
20/11:30pm 18.2 16.7 12.0 67 3.4 NNW 11 19 6 10 1003.8 1003.8 0.0
20/11:00pm 18.2 16.4 12.0 67 3.4 NNW 13 22 7 12 1003.9 1003.9 0.0
20/10:30pm 18.3 16.5 12.1 67 3.4 N 13 22 7 12 1003.8 1003.8 0.0
20/10:00pm 18.2 16.4 12.0 67 3.4 N 13 22 7 12 1003.6 1003.6 0.0
20/09:30pm 17.6 16.0 11.6 68 3.3 N 11 20 6 11 1003.6 1003.6 0.0
20/09:00pm 17.5 15.9 11.5 68 3.3 N 11 20 6 11 1003.6 1003.6 0.0
20/08:30pm 17.6 16.0 11.6 68 3.3 N 11 17 6 9 1003.7 1003.7 0.0
20/08:00pm 17.8 16.2 11.6 67 3.4 N 11 15 6 8 1004.3 1004.3 0.0
20/07:30pm 18.0 16.3 11.3 65 3.6 N 11 19 6 10 1004.6 1004.6 0.0
20/07:00pm 18.2 16.1 11.3 64 3.8 N 13 20 7 11 1004.5 1004.5 0.0
20/06:30pm 18.4 16.0 11.5 64 3.8 NNW 15 24 8 13 1004.3 1004.3 0.0
20/06:00pm 19.0 16.3 11.6 62 4.1 NNW 17 33 9 18 1004.2 1004.2 0.0
20/05:30pm 19.2 16.1 11.7 62 4.1 NNW 19 35 10 19 1004.1 1004.1 0.0
20/05:00pm 19.6 16.3 11.6 60 4.4 NW 20 35 11 19 1003.9 1003.9 0.0
20/04:30pm 20.9 17.3 11.8 56 5.1 NNW 22 33 12 18 1003.6 1003.6 0.0
20/04:00pm 20.6 17.4 11.2 55 5.2 NNW 19 32 10 17 1003.8 1003.8 0.0
20/03:30pm 21.5 18.6 10.9 51 5.8 NNW 17 32 9 17 1003.9 1003.9 0.0
20/03:00pm 21.8 18.7 11.5 52 5.8 NNW 19 32 10 17 1004.3 1004.3 0.0
20/02:30pm 21.4 18.1 10.9 51 5.8 NNW 19 30 10 16 1004.5 1004.5 0.0
20/02:00pm 21.4 17.4 10.6 50 5.9 NNW 22 44 12 24 1004.7 1004.7 0.0
20/01:30pm 21.2 17.7 11.0 52 5.6 NNW 20 35 11 19 1004.9 1004.9 0.0
20/01:00pm 20.5 17.1 11.4 56 5.0 NNW 20 39 11 21 1005.4 1005.4 0.0
20/12:30pm 21.1 16.9 11.2 53 5.5 NNW 24 43 13 23 1005.3 1005.3 0.0
20/12:00pm 21.1 17.1 11.7 55 5.3 NNW 24 37 13 20 1005.4 1005.4 0.0
20/11:30am 20.9 17.6 11.5 55 5.2 NNW 20 39 11 21 1005.4 1005.4 0.0
20/11:00am 20.2 16.6 11.7 58 4.7 NNW 22 39 12 21 1005.9 1005.9 0.0
20/10:30am 20.1 17.1 12.1 60 4.5 NNW 19 33 10 18 1006.1 1006.1 0.0
20/10:00am 19.5 16.6 12.3 63 4.0 N 19 39 10 21 1006.3 1006.3 0.0
20/09:30am 19.3 16.6 12.8 66 3.7 NNW 19 33 10 18 1006.6 1006.6 0.0
20/09:00am 18.8 15.4 12.5 67 3.5 N 22 37 12 20 1006.6 1006.6 0.4
20/08:30am 18.3 16.5 13.2 72 2.9 N 15 28 8 15 1006.9 1006.9 0.4
20/08:00am 18.2 17.1 13.1 72 2.9 NNE 11 17 6 9 1007.2 1007.2 0.4
20/07:30am 17.8 17.6 13.5 76 2.4 NNE 7 15 4 8 1007.3 1007.3 0.4
20/07:00am 17.1 16.2 12.6 75 2.5 NNE 9 15 5 8 1007.2 1007.2 0.4
20/06:30am 17.4 16.5 12.7 74 2.6 NNE 9 17 5 9 1007.1 1007.1 0.4
20/06:00am 17.5 16.5 12.4 72 2.8 NNE 9 17 5 9 1006.9 1006.9 0.4
20/05:30am 17.7 17.1 12.4 71 2.9 N 7 13 4 7 1007.1 1007.1 0.4
20/05:00am 18.1 16.8 12.5 70 3.1 NNE 11 20 6 11 1007.0 1007.0 0.4
20/04:30am 17.9 16.5 13.4 75 2.5 N 13 26 7 14 1007.1 1007.1 0.4
20/04:00am 17.0 16.8 13.7 81 1.9 N 7 15 4 8 1007.4 1007.4 0.4

Latest Capital City Observations: Canberra | Sydney | Melbourne | Brisbane | Adelaide | Perth | Hobart | Darwin

Other formats

Comma delimited format used in spreadsheet applications
http://www.bom.gov.au/fwo/IDV60901/IDV60901.94898.axf

JavaScript Object Notation format (JSON) in row-major order
http://www.bom.gov.au/fwo/IDV60901/IDV60901.94898.json

Data quality

Most of these data are generated automatically and are frequently updated. Quality checks on data are not normally performed. It is possible for incorrect values to appear. Refer to information at About Latest Weather Observations and please check the disclaimer before using these data.